New Wealth — VROA7 — position and weather

sailwx.info

Track history (hours):
 
Tides and Currents Weather Stations Pressure Air Temp Water Temp Dewpoint Dewpoint Depression Visibility Wind Speed Wind Dir Waves Ship Positions

New Wealth

Last reported at 2018-Jan-28 14:34 UTC. Time now 2018-Feb-17 20:07 UTC.
Position N 29°35' W 121°30'.
Warning: this ship's position is 20 days out of date.

Type: Tanker. MMSI: 477230919.

Date/timePositionNaut miles runAvg speedWind from/ knotsBaromVisibWave heightAir tempDewpointWater temp
2018-Jan-28 14:34N 29°35' W 121°30'112.1
2018-Jan-28 14:28N 29°36' W 121°32'13411.6
2018-Jan-28 02:52N 31°15' W 123°17'  
2018-Jan-23 03:11N 48°14' W 125°21'2 8.9
2018-Jan-23 02:58N 48°15' W 125°19'4 8.3
2018-Jan-23 02:30N 48°18' W 125°16'4 8.2
2018-Jan-23 02:00N 48°21' W 125°12'4 8.2
2018-Jan-23 01:30N 48°25' W 125°08'4 7.9
2018-Jan-23 01:00N 48°28' W 125°04'4 7.5
2018-Jan-23 00:30N 48°31' W 125°00'4 7.6
2018-Jan-23 00:00N 48°31' W 124°55'4 7.3
2018-Jan-22 23:30N 48°31' W 124°49'4 7.6
2018-Jan-22 23:00N 48°31' W 124°44'4 7.9
2018-Jan-22 22:30N 48°29' W 124°38'4 8.4
2018-Jan-22 22:00N 48°27' W 124°32'5 9.0
2018-Jan-22 21:30N 48°26' W 124°26'510.0
2018-Jan-22 21:00N 48°24' W 124°19'611.1
2018-Jan-22 20:30N 48°22' W 124°11'510.9
2018-Jan-22 20:00N 48°20' W 124°04'611.4
2018-Jan-22 19:28N 48°18' W 123°55'611.5
2018-Jan-22 18:56N 48°17' W 123°46'13 9.3
2018-Jan-22 17:31N 48°20' W 123°27'011.1
2018-Jan-22 17:29N 48°20' W 123°26'4 8.7
2018-Jan-22 17:00N 48°23' W 123°22'510.5
2018-Jan-22 16:30N 48°24' W 123°14'612.1
2018-Jan-22 16:00N 48°30' W 123°12'611.7
2018-Jan-22 15:30N 48°36' W 123°14'611.1
2018-Jan-22 15:00N 48°41' W 123°15'511.0
2018-Jan-22 14:30N 48°44' W 123°08'510.8
2018-Jan-22 14:00N 48°47' W 123°01'610.9
2018-Jan-22 13:30N 48°52' W 123°06'612.4
2018-Jan-22 13:00N 48°56' W 123°12'612.6
2018-Jan-22 12:30N 49°01' W 123°19'611.8
2018-Jan-22 12:00N 49°06' W 123°23'612.7
2018-Jan-22 11:30N 49°12' W 123°21'612.8
2018-Jan-22 11:00N 49°18' W 123°17'612.2
2018-Jan-22 10:30N 49°19' W 123°08'2 4.3
2018-Jan-22 09:58N 49°18' W 123°05'0 0.2
2018-Jan-22 09:28N 49°18' W 123°05'0 0.2
2018-Jan-22 08:58N 49°18' W 123°05'0 0.1
2018-Jan-22 08:28N 49°18' W 123°05'0 0.0
2018-Jan-22 07:58N 49°18' W 123°05'0 0.0
2018-Jan-22 07:28N 49°18' W 123°05'0 0.0
2018-Jan-22 06:58N 49°18' W 123°05'0 0.1
2018-Jan-22 06:28N 49°18' W 123°05'0 0.1
2018-Jan-22 05:58N 49°18' W 123°05'0 0.0
2018-Jan-22 05:28N 49°18' W 123°05'0 0.1
2018-Jan-22 04:58N 49°18' W 123°05'0 0.2
2018-Jan-22 04:28N 49°18' W 123°05'0 0.0
2018-Jan-22 03:58N 49°18' W 123°05'0 0.1
2018-Jan-22 03:28N 49°18' W 123°05'0 0.1
2018-Jan-22 02:58N 49°18' W 123°05'0 0.0
2018-Jan-22 02:28N 49°18' W 123°05'0 0.0
2018-Jan-22 01:58N 49°18' W 123°05'0 0.0
2018-Jan-22 01:28N 49°18' W 123°05'0 0.0
2018-Jan-22 00:58N 49°18' W 123°05'0 0.1
2018-Jan-22 00:28N 49°18' W 123°05'0 0.1
2018-Jan-21 23:58N 49°18' W 123°05'0 0.1
2018-Jan-21 23:28N 49°18' W 123°05'0 0.0
2018-Jan-21 22:58N 49°18' W 123°05'0 0.0
2018-Jan-21 22:28N 49°18' W 123°05'0 0.0
2018-Jan-21 21:58N 49°18' W 123°05'0 0.0
2018-Jan-21 21:28N 49°18' W 123°05'0 0.0
2018-Jan-21 20:58N 49°18' W 123°05'0 0.0
2018-Jan-21 20:28N 49°18' W 123°05'0 0.0
2018-Jan-21 19:58N 49°18' W 123°05'0 0.0
2018-Jan-21 19:28N 49°18' W 123°05'0 0.0
2018-Jan-21 18:58N 49°18' W 123°05'0 0.1
2018-Jan-21 18:28N 49°18' W 123°05'0 0.2
2018-Jan-21 17:58N 49°18' W 123°05'0 0.2
2018-Jan-21 17:28N 49°18' W 123°05'0 0.0
2018-Jan-21 16:58N 49°18' W 123°05'0 0.1
2018-Jan-21 16:28N 49°18' W 123°05'0 0.0
2018-Jan-21 15:58N 49°18' W 123°05'0 0.2
2018-Jan-21 15:28N 49°18' W 123°05'0 0.1
2018-Jan-21 14:58N 49°18' W 123°05'0 0.1
2018-Jan-21 14:28N 49°18' W 123°05'0 0.1
2018-Jan-21 13:58N 49°18' W 123°05'0 0.1
2018-Jan-21 13:28N 49°18' W 123°05'0 0.0
2018-Jan-21 12:58N 49°18' W 123°05'0 0.1
2018-Jan-21 12:28N 49°18' W 123°05'0 0.0
2018-Jan-21 11:58N 49°18' W 123°05'0 0.0
2018-Jan-21 11:28N 49°18' W 123°05'0 0.1
2018-Jan-21 10:58N 49°18' W 123°05'0 0.3
2018-Jan-21 10:30N 49°18' W 123°05'2 3.1
2018-Jan-21 10:00N 49°18' W 123°03'0 0.9
2018-Jan-21 09:29N 49°18' W 123°02'0 0.0
2018-Jan-21 08:59N 49°18' W 123°02'0 0.0
2018-Jan-21 08:29N 49°18' W 123°02'0 0.0
2018-Jan-21 07:59N 49°18' W 123°02'0 0.0
2018-Jan-21 07:29N 49°18' W 123°02'0 0.0
2018-Jan-21 06:59N 49°18' W 123°02'0 0.0
2018-Jan-21 06:29N 49°18' W 123°02'0 0.0
2018-Jan-21 05:50N 49°18' W 123°02'0 0.0
2018-Jan-21 05:29N 49°18' W 123°02'0 0.0
2018-Jan-21 04:59N 49°18' W 123°02'0 0.0
2018-Jan-21 04:29N 49°18' W 123°02'0 0.0
2018-Jan-21 03:59N 49°18' W 123°02'0 0.0
2018-Jan-21 03:29N 49°18' W 123°02'0 0.0
2018-Jan-21 02:59N 49°18' W 123°02'0 0.0
2018-Jan-21 02:29N 49°18' W 123°02'0 0.0
2018-Jan-21 01:59N 49°18' W 123°02'0 0.0
2018-Jan-21 01:29N 49°18' W 123°02'0 0.0
2018-Jan-21 00:53N 49°18' W 123°02'0 0.0
2018-Jan-21 00:29N 49°18' W 123°02'0 0.0
2018-Jan-20 23:59N 49°18' W 123°02'0 0.0
2018-Jan-20 23:29N 49°18' W 123°02'0 0.0
2018-Jan-20 22:59N 49°18' W 123°02'0 0.0
2018-Jan-20 22:29N 49°18' W 123°02'0 0.0
2018-Jan-20 21:59N 49°18' W 123°02'0 0.0
2018-Jan-20 21:29N 49°18' W 123°02'0 0.0
2018-Jan-20 20:59N 49°18' W 123°02'0 0.0
2018-Jan-20 20:29N 49°18' W 123°02'0 0.0
2018-Jan-20 19:56N 49°18' W 123°02'0 0.0
2018-Jan-20 19:17N 49°18' W 123°02'0 0.0
2018-Jan-20 18:56N 49°18' W 123°02'0 0.0
2018-Jan-20 18:02N 49°18' W 123°02'0 0.0
2018-Jan-20 17:47N 49°18' W 123°02'0 0.0
2018-Jan-20 17:29N 49°18' W 123°02'0 0.0
2018-Jan-20 16:47N 49°18' W 123°02'0 0.0
2018-Jan-20 16:23N 49°18' W 123°02'0 0.0
2018-Jan-20 15:59N 49°18' W 123°02'0 0.0
2018-Jan-20 15:20N 49°18' W 123°02'0 0.0
2018-Jan-20 14:50N 49°18' W 123°02'0 0.0
2018-Jan-20 14:26N 49°18' W 123°02'0 0.0
2018-Jan-20 13:59N 49°18' W 123°02'0 0.0
2018-Jan-20 13:29N 49°18' W 123°02'0 0.0
2018-Jan-20 12:56N 49°18' W 123°02'0 0.0
2018-Jan-20 12:29N 49°18' W 123°02'0 0.0
2018-Jan-20 11:59N 49°18' W 123°02'0 0.0
2018-Jan-20 11:29N 49°18' W 123°02'0 0.0
2018-Jan-20 10:56N 49°18' W 123°02'0 0.0
2018-Jan-20 10:29N 49°18' W 123°02'0 0.0
2018-Jan-20 09:59N 49°18' W 123°02'0 0.0
2018-Jan-20 09:26N 49°18' W 123°02'0 0.0
2018-Jan-20 08:59N 49°18' W 123°02'0 0.0
2018-Jan-20 08:29N 49°18' W 123°02'0 0.0
2018-Jan-20 07:59N 49°18' W 123°02'0 0.0
2018-Jan-20 07:29N 49°18' W 123°02'0 0.0
2018-Jan-20 06:59N 49°18' W 123°02'0 0.0
2018-Jan-20 06:26N 49°18' W 123°02'0 0.0
2018-Jan-20 05:59N 49°18' W 123°02'0 0.0
2018-Jan-20 05:29N 49°18' W 123°02'0 0.0
2018-Jan-20 04:59N 49°18' W 123°02'0 0.0
2018-Jan-20 04:29N 49°18' W 123°02'0 0.0
2018-Jan-20 03:59N 49°18' W 123°02'0 0.0
2018-Jan-20 03:29N 49°18' W 123°02'0 0.0
2018-Jan-20 02:59N 49°18' W 123°02'0 0.0
2018-Jan-20 02:26N 49°18' W 123°02'0 0.0
2018-Jan-20 01:56N 49°18' W 123°02'0 0.0
2018-Jan-20 01:26N 49°18' W 123°02'0 0.0
2018-Jan-20 00:59N 49°18' W 123°02'0 0.0
2018-Jan-20 00:23N 49°18' W 123°02'0 0.0
2018-Jan-19 23:53N 49°18' W 123°02'0 0.0
2018-Jan-19 23:29N 49°18' W 123°02'0 0.0
2018-Jan-19 22:53N 49°18' W 123°02'0 0.0
2018-Jan-19 22:17N 49°18' W 123°02'0 0.0
2018-Jan-19 21:41N 49°18' W 123°02'0 0.0
2018-Jan-19 21:29N 49°18' W 123°02'0 0.0
2018-Jan-19 20:26N 49°18' W 123°02'0 0.0
2018-Jan-19 16:59N 49°18' W 123°02'0 0.0
2018-Jan-19 16:20N 49°18' W 123°02'0 0.0
2018-Jan-19 15:59N 49°18' W 123°02'0 0.0
2018-Jan-19 15:29N 49°18' W 123°02'0 0.0
2018-Jan-19 14:59N 49°18' W 123°02'0 0.0
2018-Jan-19 14:17N 49°18' W 123°02'0 0.0
2018-Jan-19 13:50N 49°18' W 123°02'0 0.0
2018-Jan-19 13:11N 49°18' W 123°02'0 0.0
2018-Jan-19 12:56N 49°18' W 123°02'0 0.0
2018-Jan-19 11:17N 49°18' W 123°02'0 0.0
2018-Jan-19 10:53N 49°18' W 123°02'0 0.0
2018-Jan-19 10:23N 49°18' W 123°02'0 0.0
2018-Jan-19 09:50N 49°18' W 123°02'0 0.0
2018-Jan-19 09:26N 49°18' W 123°02'0 0.0
2018-Jan-19 08:50N 49°18' W 123°02'0 0.0
2018-Jan-19 08:23N 49°18' W 123°02'0 0.0
2018-Jan-19 07:59N 49°18' W 123°02'0 0.0
2018-Jan-19 07:26N 49°18' W 123°02'0 0.0
2018-Jan-19 06:59N 49°18' W 123°02'0 0.0
2018-Jan-19 06:29N 49°18' W 123°02'0 0.0
2018-Jan-19 05:53N 49°18' W 123°02'0 0.0
2018-Jan-19 05:26N 49°18' W 123°02'0 0.0
2018-Jan-19 04:59N 49°18' W 123°02'0 0.0
2018-Jan-19 04:26N 49°18' W 123°02'0 0.0
2018-Jan-19 03:59N 49°18' W 123°02'0 0.0
2018-Jan-19 02:56N 49°18' W 123°02'0 0.0
2018-Jan-19 02:23N 49°18' W 123°02'0 0.0
2018-Jan-19 01:59N 49°18' W 123°02'0 0.0
2018-Jan-19 01:23N 49°18' W 123°02'0 0.3
2018-Jan-19 01:00N 49°18' W 123°02'1 3.0
2018-Jan-19 00:31N 49°18' W 123°04'0 0.5
2018-Jan-18 23:57N 49°17' W 123°04'0 0.0
2018-Jan-18 23:30N 49°17' W 123°04'0 0.0
2018-Jan-18 23:00N 49°17' W 123°04'0 0.0
2018-Jan-18 22:30N 49°17' W 123°04'0 0.0
2018-Jan-18 22:00N 49°17' W 123°04'0 0.0
2018-Jan-18 21:30N 49°17' W 123°04'0 0.0
2018-Jan-18 20:54N 49°17' W 123°04'0 0.0
2018-Jan-18 20:30N 49°17' W 123°04'0 0.0
2018-Jan-18 20:00N 49°17' W 123°04'0 0.0
2018-Jan-18 19:30N 49°17' W 123°04'0 0.0
2018-Jan-18 19:00N 49°17' W 123°04'0 0.0
2018-Jan-18 18:30N 49°17' W 123°04'0 0.0
2018-Jan-18 18:00N 49°17' W 123°04'0 0.0
2018-Jan-18 17:30N 49°17' W 123°04'0 0.0
2018-Jan-18 17:00N 49°17' W 123°04'0 0.0
2018-Jan-18 16:30N 49°17' W 123°04'0 0.0
2018-Jan-18 15:57N 49°17' W 123°04'0 0.0
2018-Jan-18 15:30N 49°17' W 123°04'0 0.0
2018-Jan-18 15:00N 49°17' W 123°04'  
Track history (hours):
 
Tides and Currents Weather Stations Pressure Air Temp Water Temp Dewpoint Dewpoint Depression Visibility Wind Speed Wind Dir Waves Ship Positions

New Wealth

Last reported at 2018-Jan-28 14:34 UTC. Time now 2018-Feb-17 20:07 UTC.
Position N 29°35' W 121°30'.
Warning: this ship's position is 20 days out of date.

Type: Tanker. MMSI: 477230919.

Date/timePositionNaut miles runAvg speedWind from/ knotsBaromVisibWave heightAir tempDewpointWater temp
2018-Jan-28 14:34N 29°35' W 121°30'112.1
2018-Jan-28 14:28N 29°36' W 121°32'13411.6
2018-Jan-28 02:52N 31°15' W 123°17'  
2018-Jan-23 03:11N 48°14' W 125°21'2 8.9
2018-Jan-23 02:58N 48°15' W 125°19'4 8.3
2018-Jan-23 02:30N 48°18' W 125°16'4 8.2
2018-Jan-23 02:00N 48°21' W 125°12'4 8.2
2018-Jan-23 01:30N 48°25' W 125°08'4 7.9
2018-Jan-23 01:00N 48°28' W 125°04'4 7.5
2018-Jan-23 00:30N 48°31' W 125°00'4 7.6
2018-Jan-23 00:00N 48°31' W 124°55'4 7.3
2018-Jan-22 23:30N 48°31' W 124°49'4 7.6
2018-Jan-22 23:00N 48°31' W 124°44'4 7.9
2018-Jan-22 22:30N 48°29' W 124°38'4 8.4
2018-Jan-22 22:00N 48°27' W 124°32'5 9.0
2018-Jan-22 21:30N 48°26' W 124°26'510.0
2018-Jan-22 21:00N 48°24' W 124°19'611.1
2018-Jan-22 20:30N 48°22' W 124°11'510.9
2018-Jan-22 20:00N 48°20' W 124°04'611.4
2018-Jan-22 19:28N 48°18' W 123°55'611.5
2018-Jan-22 18:56N 48°17' W 123°46'13 9.3
2018-Jan-22 17:31N 48°20' W 123°27'011.1
2018-Jan-22 17:29N 48°20' W 123°26'4 8.7
2018-Jan-22 17:00N 48°23' W 123°22'510.5
2018-Jan-22 16:30N 48°24' W 123°14'612.1
2018-Jan-22 16:00N 48°30' W 123°12'611.7
2018-Jan-22 15:30N 48°36' W 123°14'611.1
2018-Jan-22 15:00N 48°41' W 123°15'511.0
2018-Jan-22 14:30N 48°44' W 123°08'510.8
2018-Jan-22 14:00N 48°47' W 123°01'610.9
2018-Jan-22 13:30N 48°52' W 123°06'612.4
2018-Jan-22 13:00N 48°56' W 123°12'612.6
2018-Jan-22 12:30N 49°01' W 123°19'611.8
2018-Jan-22 12:00N 49°06' W 123°23'612.7
2018-Jan-22 11:30N 49°12' W 123°21'612.8
2018-Jan-22 11:00N 49°18' W 123°17'612.2
2018-Jan-22 10:30N 49°19' W 123°08'2 4.3
2018-Jan-22 09:58N 49°18' W 123°05'0 0.2
2018-Jan-22 09:28N 49°18' W 123°05'0 0.2
2018-Jan-22 08:58N 49°18' W 123°05'0 0.1
2018-Jan-22 08:28N 49°18' W 123°05'0 0.0
2018-Jan-22 07:58N 49°18' W 123°05'0 0.0
2018-Jan-22 07:28N 49°18' W 123°05'0 0.0
2018-Jan-22 06:58N 49°18' W 123°05'0 0.1
2018-Jan-22 06:28N 49°18' W 123°05'0 0.1
2018-Jan-22 05:58N 49°18' W 123°05'0 0.0
2018-Jan-22 05:28N 49°18' W 123°05'0 0.1
2018-Jan-22 04:58N 49°18' W 123°05'0 0.2
2018-Jan-22 04:28N 49°18' W 123°05'0 0.0
2018-Jan-22 03:58N 49°18' W 123°05'0 0.1
2018-Jan-22 03:28N 49°18' W 123°05'0 0.1
2018-Jan-22 02:58N 49°18' W 123°05'0 0.0
2018-Jan-22 02:28N 49°18' W 123°05'0 0.0
2018-Jan-22 01:58N 49°18' W 123°05'0 0.0
2018-Jan-22 01:28N 49°18' W 123°05'0 0.0
2018-Jan-22 00:58N 49°18' W 123°05'0 0.1
2018-Jan-22 00:28N 49°18' W 123°05'0 0.1
2018-Jan-21 23:58N 49°18' W 123°05'0 0.1
2018-Jan-21 23:28N 49°18' W 123°05'0 0.0
2018-Jan-21 22:58N 49°18' W 123°05'0 0.0
2018-Jan-21 22:28N 49°18' W 123°05'0 0.0
2018-Jan-21 21:58N 49°18' W 123°05'0 0.0
2018-Jan-21 21:28N 49°18' W 123°05'0 0.0
2018-Jan-21 20:58N 49°18' W 123°05'0 0.0
2018-Jan-21 20:28N 49°18' W 123°05'0 0.0
2018-Jan-21 19:58N 49°18' W 123°05'0 0.0
2018-Jan-21 19:28N 49°18' W 123°05'0 0.0
2018-Jan-21 18:58N 49°18' W 123°05'0 0.1
2018-Jan-21 18:28N 49°18' W 123°05'0 0.2
2018-Jan-21 17:58N 49°18' W 123°05'0 0.2
2018-Jan-21 17:28N 49°18' W 123°05'0 0.0
2018-Jan-21 16:58N 49°18' W 123°05'0 0.1
2018-Jan-21 16:28N 49°18' W 123°05'0 0.0
2018-Jan-21 15:58N 49°18' W 123°05'0 0.2
2018-Jan-21 15:28N 49°18' W 123°05'0 0.1
2018-Jan-21 14:58N 49°18' W 123°05'0 0.1
2018-Jan-21 14:28N 49°18' W 123°05'0 0.1
2018-Jan-21 13:58N 49°18' W 123°05'0 0.1
2018-Jan-21 13:28N 49°18' W 123°05'0 0.0
2018-Jan-21 12:58N 49°18' W 123°05'0 0.1
2018-Jan-21 12:28N 49°18' W 123°05'0 0.0
2018-Jan-21 11:58N 49°18' W 123°05'0 0.0
2018-Jan-21 11:28N 49°18' W 123°05'0 0.1
2018-Jan-21 10:58N 49°18' W 123°05'0 0.3
2018-Jan-21 10:30N 49°18' W 123°05'2 3.1
2018-Jan-21 10:00N 49°18' W 123°03'0 0.9
2018-Jan-21 09:29N 49°18' W 123°02'0 0.0
2018-Jan-21 08:59N 49°18' W 123°02'0 0.0
2018-Jan-21 08:29N 49°18' W 123°02'0 0.0
2018-Jan-21 07:59N 49°18' W 123°02'0 0.0
2018-Jan-21 07:29N 49°18' W 123°02'0 0.0
2018-Jan-21 06:59N 49°18' W 123°02'0 0.0
2018-Jan-21 06:29N 49°18' W 123°02'0 0.0
2018-Jan-21 05:50N 49°18' W 123°02'0 0.0
2018-Jan-21 05:29N 49°18' W 123°02'0 0.0
2018-Jan-21 04:59N 49°18' W 123°02'0 0.0
2018-Jan-21 04:29N 49°18' W 123°02'0 0.0
2018-Jan-21 03:59N 49°18' W 123°02'0 0.0
2018-Jan-21 03:29N 49°18' W 123°02'0 0.0
2018-Jan-21 02:59N 49°18' W 123°02'0 0.0
2018-Jan-21 02:29N 49°18' W 123°02'0 0.0
2018-Jan-21 01:59N 49°18' W 123°02'0 0.0
2018-Jan-21 01:29N 49°18' W 123°02'0 0.0
2018-Jan-21 00:53N 49°18' W 123°02'0 0.0
2018-Jan-21 00:29N 49°18' W 123°02'0 0.0
2018-Jan-20 23:59N 49°18' W 123°02'0 0.0
2018-Jan-20 23:29N 49°18' W 123°02'0 0.0
2018-Jan-20 22:59N 49°18' W 123°02'0 0.0
2018-Jan-20 22:29N 49°18' W 123°02'0 0.0
2018-Jan-20 21:59N 49°18' W 123°02'0 0.0
2018-Jan-20 21:29N 49°18' W 123°02'0 0.0
2018-Jan-20 20:59N 49°18' W 123°02'0 0.0
2018-Jan-20 20:29N 49°18' W 123°02'0 0.0
2018-Jan-20 19:56N 49°18' W 123°02'0 0.0
2018-Jan-20 19:17N 49°18' W 123°02'0 0.0
2018-Jan-20 18:56N 49°18' W 123°02'0 0.0
2018-Jan-20 18:02N 49°18' W 123°02'0 0.0
2018-Jan-20 17:47N 49°18' W 123°02'0 0.0
2018-Jan-20 17:29N 49°18' W 123°02'0 0.0
2018-Jan-20 16:47N 49°18' W 123°02'0 0.0
2018-Jan-20 16:23N 49°18' W 123°02'0 0.0
2018-Jan-20 15:59N 49°18' W 123°02'0 0.0
2018-Jan-20 15:20N 49°18' W 123°02'0 0.0
2018-Jan-20 14:50N 49°18' W 123°02'0 0.0
2018-Jan-20 14:26N 49°18' W 123°02'0 0.0
2018-Jan-20 13:59N 49°18' W 123°02'0 0.0
2018-Jan-20 13:29N 49°18' W 123°02'0 0.0
2018-Jan-20 12:56N 49°18' W 123°02'0 0.0
2018-Jan-20 12:29N 49°18' W 123°02'0 0.0
2018-Jan-20 11:59N 49°18' W 123°02'0 0.0
2018-Jan-20 11:29N 49°18' W 123°02'0 0.0
2018-Jan-20 10:56N 49°18' W 123°02'0 0.0
2018-Jan-20 10:29N 49°18' W 123°02'0 0.0
2018-Jan-20 09:59N 49°18' W 123°02'0 0.0
2018-Jan-20 09:26N 49°18' W 123°02'0 0.0
2018-Jan-20 08:59N 49°18' W 123°02'0 0.0
2018-Jan-20 08:29N 49°18' W 123°02'0 0.0
2018-Jan-20 07:59N 49°18' W 123°02'0 0.0
2018-Jan-20 07:29N 49°18' W 123°02'0 0.0
2018-Jan-20 06:59N 49°18' W 123°02'0 0.0
2018-Jan-20 06:26N 49°18' W 123°02'0 0.0
2018-Jan-20 05:59N 49°18' W 123°02'0 0.0
2018-Jan-20 05:29N 49°18' W 123°02'0 0.0
2018-Jan-20 04:59N 49°18' W 123°02'0 0.0
2018-Jan-20 04:29N 49°18' W 123°02'0 0.0
2018-Jan-20 03:59N 49°18' W 123°02'0 0.0
2018-Jan-20 03:29N 49°18' W 123°02'0 0.0
2018-Jan-20 02:59N 49°18' W 123°02'0 0.0
2018-Jan-20 02:26N 49°18' W 123°02'0 0.0
2018-Jan-20 01:56N 49°18' W 123°02'0 0.0
2018-Jan-20 01:26N 49°18' W 123°02'0 0.0
2018-Jan-20 00:59N 49°18' W 123°02'0 0.0
2018-Jan-20 00:23N 49°18' W 123°02'0 0.0
2018-Jan-19 23:53N 49°18' W 123°02'0 0.0
2018-Jan-19 23:29N 49°18' W 123°02'0 0.0
2018-Jan-19 22:53N 49°18' W 123°02'0 0.0
2018-Jan-19 22:17N 49°18' W 123°02'0 0.0
2018-Jan-19 21:41N 49°18' W 123°02'0 0.0
2018-Jan-19 21:29N 49°18' W 123°02'0 0.0
2018-Jan-19 20:26N 49°18' W 123°02'0 0.0
2018-Jan-19 16:59N 49°18' W 123°02'0 0.0
2018-Jan-19 16:20N 49°18' W 123°02'0 0.0
2018-Jan-19 15:59N 49°18' W 123°02'0 0.0
2018-Jan-19 15:29N 49°18' W 123°02'0 0.0
2018-Jan-19 14:59N 49°18' W 123°02'0 0.0
2018-Jan-19 14:17N 49°18' W 123°02'0 0.0
2018-Jan-19 13:50N 49°18' W 123°02'0 0.0
2018-Jan-19 13:11N 49°18' W 123°02'0 0.0
2018-Jan-19 12:56N 49°18' W 123°02'0 0.0
2018-Jan-19 11:17N 49°18' W 123°02'0 0.0
2018-Jan-19 10:53N 49°18' W 123°02'0 0.0
2018-Jan-19 10:23N 49°18' W 123°02'0 0.0
2018-Jan-19 09:50N 49°18' W 123°02'0 0.0
2018-Jan-19 09:26N 49°18' W 123°02'0 0.0
2018-Jan-19 08:50N 49°18' W 123°02'0 0.0
2018-Jan-19 08:23N 49°18' W 123°02'0 0.0
2018-Jan-19 07:59N 49°18' W 123°02'0 0.0
2018-Jan-19 07:26N 49°18' W 123°02'0 0.0
2018-Jan-19 06:59N 49°18' W 123°02'0 0.0
2018-Jan-19 06:29N 49°18' W 123°02'0 0.0
2018-Jan-19 05:53N 49°18' W 123°02'0 0.0
2018-Jan-19 05:26N 49°18' W 123°02'0 0.0
2018-Jan-19 04:59N 49°18' W 123°02'0 0.0
2018-Jan-19 04:26N 49°18' W 123°02'0 0.0
2018-Jan-19 03:59N 49°18' W 123°02'0 0.0
2018-Jan-19 02:56N 49°18' W 123°02'0 0.0
2018-Jan-19 02:23N 49°18' W 123°02'0 0.0
2018-Jan-19 01:59N 49°18' W 123°02'0 0.0
2018-Jan-19 01:23N 49°18' W 123°02'0 0.3
2018-Jan-19 01:00N 49°18' W 123°02'1 3.0
2018-Jan-19 00:31N 49°18' W 123°04'0 0.5
2018-Jan-18 23:57N 49°17' W 123°04'0 0.0
2018-Jan-18 23:30N 49°17' W 123°04'0 0.0
2018-Jan-18 23:00N 49°17' W 123°04'0 0.0
2018-Jan-18 22:30N 49°17' W 123°04'0 0.0
2018-Jan-18 22:00N 49°17' W 123°04'0 0.0
2018-Jan-18 21:30N 49°17' W 123°04'0 0.0
2018-Jan-18 20:54N 49°17' W 123°04'0 0.0
2018-Jan-18 20:30N 49°17' W 123°04'0 0.0
2018-Jan-18 20:00N 49°17' W 123°04'0 0.0
2018-Jan-18 19:30N 49°17' W 123°04'0 0.0
2018-Jan-18 19:00N 49°17' W 123°04'0 0.0
2018-Jan-18 18:30N 49°17' W 123°04'0 0.0
2018-Jan-18 18:00N 49°17' W 123°04'0 0.0
2018-Jan-18 17:30N 49°17' W 123°04'0 0.0
2018-Jan-18 17:00N 49°17' W 123°04'0 0.0
2018-Jan-18 16:30N 49°17' W 123°04'0 0.0
2018-Jan-18 15:57N 49°17' W 123°04'0 0.0
2018-Jan-18 15:30N 49°17' W 123°04'0 0.0
2018-Jan-18 15:00N 49°17' W 123°04'  

Dump ship's entire track history